sensor_id;sensor_type;location;lat;lon;timestamp;temperature;humidity
42905;DHT22;28550;51.228;4.528;2022-12-11T03:20:45;2.60;85.80
42905;DHT22;28550;51.228;4.528;2022-12-11T03:33:30;2.80;81.20
42905;DHT22;28550;51.228;4.528;2022-12-11T03:36:02;2.70;85.70
42905;DHT22;28550;51.228;4.528;2022-12-11T03:38:49;2.70;87.00
42905;DHT22;28550;51.228;4.528;2022-12-11T03:41:18;2.70;88.20
42905;DHT22;28550;51.228;4.528;2022-12-11T03:43:49;2.70;90.00
42905;DHT22;28550;51.228;4.528;2022-12-11T03:46:17;2.80;88.60
42905;DHT22;28550;51.228;4.528;2022-12-11T03:48:46;2.70;89.90
42905;DHT22;28550;51.228;4.528;2022-12-11T03:51:13;2.80;87.80
42905;DHT22;28550;51.228;4.528;2022-12-11T03:53:39;2.80;87.00
42905;DHT22;28550;51.228;4.528;2022-12-11T03:56:07;2.90;85.40
42905;DHT22;28550;51.228;4.528;2022-12-11T03:58:33;2.90;80.40
42905;DHT22;28550;51.228;4.528;2022-12-11T04:00:58;3.00;79.40
42905;DHT22;28550;51.228;4.528;2022-12-11T04:03:24;2.90;79.90
42905;DHT22;28550;51.228;4.528;2022-12-11T04:05:53;2.90;82.40
42905;DHT22;28550;51.228;4.528;2022-12-11T04:08:20;2.80;84.40
42905;DHT22;28550;51.228;4.528;2022-12-11T04:10:47;2.80;86.90
42905;DHT22;28550;51.228;4.528;2022-12-11T04:13:13;2.80;89.20
42905;DHT22;28550;51.228;4.528;2022-12-11T04:15:39;2.70;87.50
42905;DHT22;28550;51.228;4.528;2022-12-11T04:18:06;2.90;81.90
42905;DHT22;28550;51.228;4.528;2022-12-11T04:20:54;2.80;87.60
42905;DHT22;28550;51.228;4.528;2022-12-11T04:23:39;2.80;85.10
42905;DHT22;28550;51.228;4.528;2022-12-11T04:26:27;2.80;85.30
42905;DHT22;28550;51.228;4.528;2022-12-11T04:28:53;3.00;78.10
42905;DHT22;28550;51.228;4.528;2022-12-11T04:31:20;2.90;79.00
42905;DHT22;28550;51.228;4.528;2022-12-11T04:33:47;2.90;83.10
42905;DHT22;28550;51.228;4.528;2022-12-11T04:36:13;2.80;82.60
42905;DHT22;28550;51.228;4.528;2022-12-11T04:38:40;2.90;84.90
42905;DHT22;28550;51.228;4.528;2022-12-11T04:41:11;3.00;79.20
42905;DHT22;28550;51.228;4.528;2022-12-11T04:43:37;3.10;77.10
42905;DHT22;28550;51.228;4.528;2022-12-11T04:46:22;3.10;78.00
42905;DHT22;28550;51.228;4.528;2022-12-11T04:48:49;3.00;82.00
42905;DHT22;28550;51.228;4.528;2022-12-11T04:51:15;3.10;79.40
42905;DHT22;28550;51.228;4.528;2022-12-11T04:53:41;3.10;79.10
42905;DHT22;28550;51.228;4.528;2022-12-11T04:56:09;3.20;74.30
42905;DHT22;28550;51.228;4.528;2022-12-11T04:58:35;3.20;69.30
42905;DHT22;28550;51.228;4.528;2022-12-11T05:01:17;3.20;74.30
42905;DHT22;28550;51.228;4.528;2022-12-11T05:03:43;3.10;73.10
42905;DHT22;28550;51.228;4.528;2022-12-11T05:06:09;3.00;77.10
42905;DHT22;28550;51.228;4.528;2022-12-11T05:08:40;3.00;82.80
42905;DHT22;28550;51.228;4.528;2022-12-11T05:11:09;3.10;74.90
42905;DHT22;28550;51.228;4.528;2022-12-11T05:13:36;3.10;77.50
42905;DHT22;28550;51.228;4.528;2022-12-11T05:16:06;3.10;78.80
42905;DHT22;28550;51.228;4.528;2022-12-11T05:18:32;3.00;79.80
42905;DHT22;28550;51.228;4.528;2022-12-11T05:21:06;3.10;81.30
42905;DHT22;28550;51.228;4.528;2022-12-11T05:23:33;3.10;77.70
42905;DHT22;28550;51.228;4.528;2022-12-11T05:26:01;3.30;70.30
42905;DHT22;28550;51.228;4.528;2022-12-11T05:28:30;3.10;77.80
42905;DHT22;28550;51.228;4.528;2022-12-11T05:30:58;3.00;81.40
42905;DHT22;28550;51.228;4.528;2022-12-11T05:33:24;3.10;77.70
42905;DHT22;28550;51.228;4.528;2022-12-11T05:35:51;3.10;77.80
42905;DHT22;28550;51.228;4.528;2022-12-11T05:38:17;3.10;75.80
42905;DHT22;28550;51.228;4.528;2022-12-11T05:40:43;3.10;76.20
42905;DHT22;28550;51.228;4.528;2022-12-11T05:43:11;3.10;76.70
42905;DHT22;28550;51.228;4.528;2022-12-11T05:45:36;3.10;76.40
42905;DHT22;28550;51.228;4.528;2022-12-11T05:48:02;3.10;80.40
42905;DHT22;28550;51.228;4.528;2022-12-11T05:50:28;3.20;74.00
42905;DHT22;28550;51.228;4.528;2022-12-11T05:55:38;3.20;68.70
42905;DHT22;28550;51.228;4.528;2022-12-11T05:58:04;3.20;69.30
42905;DHT22;28550;51.228;4.528;2022-12-11T06:00:29;3.20;68.60
42905;DHT22;28550;51.228;4.528;2022-12-11T06:02:55;3.00;74.70
42905;DHT22;28550;51.228;4.528;2022-12-11T06:05:20;2.90;81.10
42905;DHT22;28550;51.228;4.528;2022-12-11T06:07:46;2.80;87.80
42905;DHT22;28550;51.228;4.528;2022-12-11T06:10:12;2.70;90.10
42905;DHT22;28550;51.228;4.528;2022-12-11T06:12:37;2.70;91.70
42905;DHT22;28550;51.228;4.528;2022-12-11T06:15:03;2.70;92.70
42905;DHT22;28550;51.228;4.528;2022-12-11T06:17:30;2.70;93.00
42905;DHT22;28550;51.228;4.528;2022-12-11T06:19:55;2.60;93.10
42905;DHT22;28550;51.228;4.528;2022-12-11T06:22:21;2.60;94.00
42905;DHT22;28550;51.228;4.528;2022-12-11T06:24:47;2.70;93.30
42905;DHT22;28550;51.228;4.528;2022-12-11T06:27:12;2.50;94.00
42905;DHT22;28550;51.228;4.528;2022-12-11T06:29:38;2.60;94.50
42905;DHT22;28550;51.228;4.528;2022-12-11T06:32:04;2.50;94.00
42905;DHT22;28550;51.228;4.528;2022-12-11T06:34:29;2.60;92.90
42905;DHT22;28550;51.228;4.528;2022-12-11T06:36:55;2.50;92.60
42905;DHT22;28550;51.228;4.528;2022-12-11T06:39:21;2.60;93.10
42905;DHT22;28550;51.228;4.528;2022-12-11T06:41:46;2.80;90.80
42905;DHT22;28550;51.228;4.528;2022-12-11T06:44:13;2.80;86.90
42905;DHT22;28550;51.228;4.528;2022-12-11T06:46:39;2.80;87.80
42905;DHT22;28550;51.228;4.528;2022-12-11T06:49:04;2.70;85.20
42905;DHT22;28550;51.228;4.528;2022-12-11T06:51:31;2.70;89.80
42905;DHT22;28550;51.228;4.528;2022-12-11T06:53:57;2.60;92.00
42905;DHT22;28550;51.228;4.528;2022-12-11T06:56:23;2.40;92.90
42905;DHT22;28550;51.228;4.528;2022-12-11T06:58:49;2.40;94.20
42905;DHT22;28550;51.228;4.528;2022-12-11T07:01:21;2.30;95.40
42905;DHT22;28550;51.228;4.528;2022-12-11T07:03:47;2.30;96.30
42905;DHT22;28550;51.228;4.528;2022-12-11T07:06:16;2.30;95.70
42905;DHT22;28550;51.228;4.528;2022-12-11T07:08:42;2.40;95.90
42905;DHT22;28550;51.228;4.528;2022-12-11T07:11:13;2.40;94.90
42905;DHT22;28550;51.228;4.528;2022-12-11T07:13:39;2.40;95.60
42905;DHT22;28550;51.228;4.528;2022-12-11T07:25:01;2.20;97.50
42905;DHT22;28550;51.228;4.528;2022-12-11T07:27:28;2.30;97.30
42905;DHT22;28550;51.228;4.528;2022-12-11T07:29:53;2.30;97.50
42905;DHT22;28550;51.228;4.528;2022-12-11T07:32:20;2.30;97.30
42905;DHT22;28550;51.228;4.528;2022-12-11T07:34:48;2.30;97.00
42905;DHT22;28550;51.228;4.528;2022-12-11T07:37:14;2.40;96.20
42905;DHT22;28550;51.228;4.528;2022-12-11T07:39:41;2.40;95.70
42905;DHT22;28550;51.228;4.528;2022-12-11T07:42:29;2.40;96.40
42905;DHT22;28550;51.228;4.528;2022-12-11T07:44:58;2.60;94.60
42905;DHT22;28550;51.228;4.528;2022-12-11T07:47:24;2.40;93.80
42905;DHT22;28550;51.228;4.528;2022-12-11T07:49:50;2.60;94.10
42905;DHT22;28550;51.228;4.528;2022-12-11T07:52:15;2.60;93.90
42905;DHT22;28550;51.228;4.528;2022-12-11T07:54:41;2.50;93.90
42905;DHT22;28550;51.228;4.528;2022-12-11T07:57:07;2.60;94.80
42905;DHT22;28550;51.228;4.528;2022-12-11T07:59:32;2.60;93.90
42905;DHT22;28550;51.228;4.528;2022-12-11T08:01:58;2.50;94.30
42905;DHT22;28550;51.228;4.528;2022-12-11T08:04:24;2.40;94.20
42905;DHT22;28550;51.228;4.528;2022-12-11T08:12:27;2.50;93.40
42905;DHT22;28550;51.228;4.528;2022-12-11T08:14:53;2.50;93.90
42905;DHT22;28550;51.228;4.528;2022-12-11T08:17:19;2.40;94.20
42905;DHT22;28550;51.228;4.528;2022-12-11T08:19:44;2.50;95.30
42905;DHT22;28550;51.228;4.528;2022-12-11T08:22:13;2.50;95.40
42905;DHT22;28550;51.228;4.528;2022-12-11T08:36:05;2.40;94.50
42905;DHT22;28550;51.228;4.528;2022-12-11T08:38:33;2.40;95.70
42905;DHT22;28550;51.228;4.528;2022-12-11T08:44:22;2.50;94.10
42905;DHT22;28550;51.228;4.528;2022-12-11T08:46:49;2.70;93.40
42905;DHT22;28550;51.228;4.528;2022-12-11T08:49:15;2.50;93.40
42905;DHT22;28550;51.228;4.528;2022-12-11T08:51:42;2.50;94.90
42905;DHT22;28550;51.228;4.528;2022-12-11T08:54:18;2.40;95.50
42905;DHT22;28550;51.228;4.528;2022-12-11T08:56:44;2.50;96.00
42905;DHT22;28550;51.228;4.528;2022-12-11T08:59:10;2.70;95.10
42905;DHT22;28550;51.228;4.528;2022-12-11T09:01:36;2.90;92.30
42905;DHT22;28550;51.228;4.528;2022-12-11T09:04:02;2.90;90.30
42905;DHT22;28550;51.228;4.528;2022-12-11T09:06:29;2.70;87.90
42905;DHT22;28550;51.228;4.528;2022-12-11T09:08:57;2.70;91.00
42905;DHT22;28550;51.228;4.528;2022-12-11T09:11:26;2.70;91.20
42905;DHT22;28550;51.228;4.528;2022-12-11T09:13:52;2.70;91.80
42905;DHT22;28550;51.228;4.528;2022-12-11T09:16:20;2.80;91.70
42905;DHT22;28550;51.228;4.528;2022-12-11T09:18:48;2.90;91.30
42905;DHT22;28550;51.228;4.528;2022-12-11T09:21:15;2.90;89.70
42905;DHT22;28550;51.228;4.528;2022-12-11T09:30:29;3.00;61.80
42905;DHT22;28550;51.228;4.528;2022-12-11T09:33:11;2.90;67.00
42905;DHT22;28550;51.228;4.528;2022-12-11T09:35:36;3.00;71.50
42905;DHT22;28550;51.228;4.528;2022-12-11T09:38:02;3.00;64.70
42905;DHT22;28550;51.228;4.528;2022-12-11T09:40:28;3.10;59.40
42905;DHT22;28550;51.228;4.528;2022-12-11T09:43:05;3.00;65.80
42905;DHT22;28550;51.228;4.528;2022-12-11T09:54:09;3.10;49.30
42905;DHT22;28550;51.228;4.528;2022-12-11T09:56:47;3.00;54.90
42905;DHT22;28550;51.228;4.528;2022-12-11T10:02:23;3.00;61.80
42905;DHT22;28550;51.228;4.528;2022-12-11T10:05:11;3.00;59.90
42905;DHT22;28550;51.228;4.528;2022-12-11T10:19:40;3.30;39.50
42905;DHT22;28550;51.228;4.528;2022-12-11T10:22:32;3.20;40.20
42905;DHT22;28550;51.228;4.528;2022-12-11T10:24:59;3.20;46.40
42905;DHT22;28550;51.228;4.528;2022-12-11T10:27:34;3.10;48.90
42905;DHT22;28550;51.228;4.528;2022-12-11T10:33:20;3.20;35.20
42905;DHT22;28550;51.228;4.528;2022-12-11T10:35:53;3.10;41.70
42905;DHT22;28550;51.228;4.528;2022-12-11T10:38:41;3.10;47.10
42905;DHT22;28550;51.228;4.528;2022-12-11T10:41:32;3.20;44.00
42905;DHT22;28550;51.228;4.528;2022-12-11T10:43:59;3.20;48.50
42905;DHT22;28550;51.228;4.528;2022-12-11T10:46:28;3.30;48.10
42905;DHT22;28550;51.228;4.528;2022-12-11T10:49:01;3.40;38.90
42905;DHT22;28550;51.228;4.528;2022-12-11T10:58:21;3.50;8.70
42905;DHT22;28550;51.228;4.528;2022-12-11T11:04:30;3.50;13.80
42905;DHT22;28550;51.228;4.528;2022-12-11T11:07:20;3.40;8.70
42905;DHT22;28550;51.228;4.528;2022-12-11T11:09:47;3.30;35.90
42905;DHT22;28550;51.228;4.528;2022-12-11T11:12:24;3.20;35.50
42905;DHT22;28550;51.228;4.528;2022-12-11T11:18:21;3.30;26.50
42905;DHT22;28550;51.228;4.528;2022-12-11T11:20:49;3.40;17.40
42905;DHT22;28550;51.228;4.528;2022-12-11T11:23:18;3.50;16.30
42905;DHT22;28550;51.228;4.528;2022-12-11T11:25:55;3.40;26.70
42905;DHT22;28550;51.228;4.528;2022-12-11T11:28:29;3.50;31.40
42905;DHT22;28550;51.228;4.528;2022-12-11T11:33:26;3.50;13.20
42905;DHT22;28550;51.228;4.528;2022-12-11T11:35:58;3.50;15.00
42905;DHT22;28550;51.228;4.528;2022-12-11T11:38:28;3.40;26.80
42905;DHT22;28550;51.228;4.528;2022-12-11T11:44:24;3.30;13.90
42905;DHT22;28550;51.228;4.528;2022-12-11T11:50:21;3.10;21.00
42905;DHT22;28550;51.228;4.528;2022-12-11T11:53:11;3.10;20.20
42905;DHT22;28550;51.228;4.528;2022-12-11T11:55:56;3.00;19.00
42905;DHT22;28550;51.228;4.528;2022-12-11T11:58:33;3.00;27.10
42905;DHT22;28550;51.228;4.528;2022-12-11T12:04:26;2.90;20.60
42905;DHT22;28550;51.228;4.528;2022-12-11T12:10:05;3.20;31.80
42905;DHT22;28550;51.228;4.528;2022-12-11T12:12:41;3.60;17.70
42905;DHT22;28550;51.228;4.528;2022-12-11T12:15:14;4.00;1.00
42905;DHT22;28550;51.228;4.528;2022-12-11T12:26:10;3.60;1.00
42905;DHT22;28550;51.228;4.528;2022-12-11T12:47:54;4.30;99.90
42905;DHT22;28550;51.228;4.528;2022-12-11T12:50:32;4.30;99.90
42905;DHT22;28550;51.228;4.528;2022-12-11T12:53:01;4.40;99.90
42905;DHT22;28550;51.228;4.528;2022-12-11T12:55:29;4.30;99.90
42905;DHT22;28550;51.228;4.528;2022-12-11T12:58:05;4.20;99.90
42905;DHT22;28550;51.228;4.528;2022-12-11T13:00:34;3.90;1.00
42905;DHT22;28550;51.228;4.528;2022-12-11T13:03:12;4.00;1.00
42905;DHT22;28550;51.228;4.528;2022-12-11T13:05:42;3.80;1.00
42905;DHT22;28550;51.228;4.528;2022-12-11T13:08:11;3.60;1.00
42905;DHT22;28550;51.228;4.528;2022-12-11T13:10:40;3.60;1.00
42905;DHT22;28550;51.228;4.528;2022-12-11T13:13:25;3.70;1.00
42905;DHT22;28550;51.228;4.528;2022-12-11T13:16:05;3.80;1.00
42905;DHT22;28550;51.228;4.528;2022-12-11T13:18:38;4.10;1.00
42905;DHT22;28550;51.228;4.528;2022-12-11T13:23:50;4.20;1.00
42905;DHT22;28550;51.228;4.528;2022-12-11T13:26:31;4.30;1.00
42905;DHT22;28550;51.228;4.528;2022-12-11T13:28:57;4.10;1.00
42905;DHT22;28550;51.228;4.528;2022-12-11T13:31:36;4.20;99.90
42905;DHT22;28550;51.228;4.528;2022-12-11T13:34:16;4.10;1.00
42905;DHT22;28550;51.228;4.528;2022-12-11T13:36:50;3.70;1.00
42905;DHT22;28550;51.228;4.528;2022-12-11T13:39:26;3.50;1.00
42905;DHT22;28550;51.228;4.528;2022-12-11T13:42:06;3.50;1.00
42905;DHT22;28550;51.228;4.528;2022-12-11T13:44:35;3.70;1.00
42905;DHT22;28550;51.228;4.528;2022-12-11T13:47:04;3.70;1.00
42905;DHT22;28550;51.228;4.528;2022-12-11T13:49:35;3.90;1.00
42905;DHT22;28550;51.228;4.528;2022-12-11T13:52:03;3.90;1.00
42905;DHT22;28550;51.228;4.528;2022-12-11T13:54:30;3.90;1.00
42905;DHT22;28550;51.228;4.528;2022-12-11T13:57:15;3.80;1.00
42905;DHT22;28550;51.228;4.528;2022-12-11T14:02:35;3.20;1.00
42905;DHT22;28550;51.228;4.528;2022-12-11T14:05:08;3.10;1.00
42905;DHT22;28550;51.228;4.528;2022-12-11T14:07:39;3.20;1.00
42905;DHT22;28550;51.228;4.528;2022-12-11T14:15:20;3.60;1.00
42905;DHT22;28550;51.228;4.528;2022-12-11T14:17:46;3.60;1.00
42905;DHT22;28550;51.228;4.528;2022-12-11T14:20:32;3.70;1.00
42905;DHT22;28550;51.228;4.528;2022-12-11T14:23:35;3.80;1.00
42905;DHT22;28550;51.228;4.528;2022-12-11T14:28:51;3.50;1.00
42905;DHT22;28550;51.228;4.528;2022-12-11T14:31:35;3.50;1.00
42905;DHT22;28550;51.228;4.528;2022-12-11T14:34:18;3.40;1.00
42905;DHT22;28550;51.228;4.528;2022-12-11T14:36:46;3.40;1.00
42905;DHT22;28550;51.228;4.528;2022-12-11T14:39:18;3.40;1.00
42905;DHT22;28550;51.228;4.528;2022-12-11T14:41:56;3.50;1.00
42905;DHT22;28550;51.228;4.528;2022-12-11T14:44:23;3.50;1.00
42905;DHT22;28550;51.228;4.528;2022-12-11T14:47:18;3.40;1.00
42905;DHT22;28550;51.228;4.528;2022-12-11T14:52:22;3.20;1.00
42905;DHT22;28550;51.228;4.528;2022-12-11T14:54:55;3.40;1.00
42905;DHT22;28550;51.228;4.528;2022-12-11T14:57:27;3.50;1.00
42905;DHT22;28550;51.228;4.528;2022-12-11T14:59:54;3.50;1.00
42905;DHT22;28550;51.228;4.528;2022-12-11T15:07:35;3.30;1.00
42905;DHT22;28550;51.228;4.528;2022-12-11T15:10:02;3.40;1.00
42905;DHT22;28550;51.228;4.528;2022-12-11T15:12:28;3.50;1.00
42905;DHT22;28550;51.228;4.528;2022-12-11T15:14:59;3.50;1.00
42905;DHT22;28550;51.228;4.528;2022-12-11T15:17:27;3.60;1.00
42905;DHT22;28550;51.228;4.528;2022-12-11T15:20:21;3.40;1.00
42905;DHT22;28550;51.228;4.528;2022-12-11T15:22:48;3.50;1.40
42905;DHT22;28550;51.228;4.528;2022-12-11T15:25:22;3.50;1.00
42905;DHT22;28550;51.228;4.528;2022-12-11T15:27:55;3.50;1.00
42905;DHT22;28550;51.228;4.528;2022-12-11T15:35:38;3.40;1.00
42905;DHT22;28550;51.228;4.528;2022-12-11T15:38:04;3.30;2.60
42905;DHT22;28550;51.228;4.528;2022-12-11T15:40:30;3.30;13.80
42905;DHT22;28550;51.228;4.528;2022-12-11T15:42:56;3.40;11.00
42905;DHT22;28550;51.228;4.528;2022-12-11T15:45:26;3.40;6.20
42905;DHT22;28550;51.228;4.528;2022-12-11T15:47:55;3.30;20.90
42905;DHT22;28550;51.228;4.528;2022-12-11T15:50:26;3.30;17.90
42905;DHT22;28550;51.228;4.528;2022-12-11T15:52:53;3.30;19.60
42905;DHT22;28550;51.228;4.528;2022-12-11T15:55:20;3.30;26.50
42905;DHT22;28550;51.228;4.528;2022-12-11T15:57:59;3.20;30.10
42905;DHT22;28550;51.228;4.528;2022-12-11T16:00:28;3.30;28.10
42905;DHT22;28550;51.228;4.528;2022-12-11T16:02:55;3.30;30.70
42905;DHT22;28550;51.228;4.528;2022-12-11T16:05:22;3.20;33.30
42905;DHT22;28550;51.228;4.528;2022-12-11T16:07:48;3.20;37.00
42905;DHT22;28550;51.228;4.528;2022-12-11T16:10:18;3.30;38.00
42905;DHT22;28550;51.228;4.528;2022-12-11T16:12:44;3.20;41.50
42905;DHT22;28550;51.228;4.528;2022-12-11T16:15:11;3.30;41.80
42905;DHT22;28550;51.228;4.528;2022-12-11T16:17:38;3.20;41.90
42905;DHT22;28550;51.228;4.528;2022-12-11T16:20:04;3.40;40.10
42905;DHT22;28550;51.228;4.528;2022-12-11T16:22:30;3.30;40.10
42905;DHT22;28550;51.228;4.528;2022-12-11T16:24:56;3.20;42.60
42905;DHT22;28550;51.228;4.528;2022-12-11T16:27:22;3.20;52.20
42905;DHT22;28550;51.228;4.528;2022-12-11T16:29:48;3.20;52.90
42905;DHT22;28550;51.228;4.528;2022-12-11T16:32:14;3.10;55.40
42905;DHT22;28550;51.228;4.528;2022-12-11T16:34:40;2.90;58.10
42905;DHT22;28550;51.228;4.528;2022-12-11T16:37:07;2.70;64.60
42905;DHT22;28550;51.228;4.528;2022-12-11T16:39:34;2.70;70.90
42905;DHT22;28550;51.228;4.528;2022-12-11T16:42:01;2.60;72.00
42905;DHT22;28550;51.228;4.528;2022-12-11T16:44:27;2.50;73.70
42905;DHT22;28550;51.228;4.528;2022-12-11T16:46:53;2.50;77.00
42905;DHT22;28550;51.228;4.528;2022-12-11T16:49:20;2.50;78.50
42905;DHT22;28550;51.228;4.528;2022-12-11T16:51:46;2.60;78.40
42905;DHT22;28550;51.228;4.528;2022-12-11T16:54:14;2.60;77.70
42905;DHT22;28550;51.228;4.528;2022-12-11T16:56:40;2.60;78.60
42905;DHT22;28550;51.228;4.528;2022-12-11T16:59:06;2.50;79.50
42905;DHT22;28550;51.228;4.528;2022-12-11T17:01:32;2.50;83.40
42905;DHT22;28550;51.228;4.528;2022-12-11T17:03:58;2.60;81.10
42905;DHT22;28550;51.228;4.528;2022-12-11T17:06:24;2.50;81.60
42905;DHT22;28550;51.228;4.528;2022-12-11T17:08:49;2.60;81.70
42905;DHT22;28550;51.228;4.528;2022-12-11T17:11:18;2.60;84.80
42905;DHT22;28550;51.228;4.528;2022-12-11T17:13:44;2.60;81.20
42905;DHT22;28550;51.228;4.528;2022-12-11T17:16:13;2.50;82.30
42905;DHT22;28550;51.228;4.528;2022-12-11T17:18:39;2.50;84.40
42905;DHT22;28550;51.228;4.528;2022-12-11T17:21:13;2.60;87.00
42905;DHT22;28550;51.228;4.528;2022-12-11T17:23:39;2.60;87.20
42905;DHT22;28550;51.228;4.528;2022-12-11T17:26:05;2.50;85.30
42905;DHT22;28550;51.228;4.528;2022-12-11T17:28:34;2.40;86.40
42905;DHT22;28550;51.228;4.528;2022-12-11T17:31:02;2.50;86.80
42905;DHT22;28550;51.228;4.528;2022-12-11T17:33:28;2.30;87.20
42905;DHT22;28550;51.228;4.528;2022-12-11T17:35:54;2.20;89.40
42905;DHT22;28550;51.228;4.528;2022-12-11T17:38:21;2.10;90.70
42905;DHT22;28550;51.228;4.528;2022-12-11T17:40:46;2.00;92.00
42905;DHT22;28550;51.228;4.528;2022-12-11T17:43:12;2.00;93.00
42905;DHT22;28550;51.228;4.528;2022-12-11T17:45:46;2.10;92.40
42905;DHT22;28550;51.228;4.528;2022-12-11T17:48:12;2.20;91.20
42905;DHT22;28550;51.228;4.528;2022-12-11T17:50:40;2.10;90.40
42905;DHT22;28550;51.228;4.528;2022-12-11T17:53:06;2.10;91.10
42905;DHT22;28550;51.228;4.528;2022-12-11T17:55:32;2.10;91.00
42905;DHT22;28550;51.228;4.528;2022-12-11T17:57:58;2.00;92.00
42905;DHT22;28550;51.228;4.528;2022-12-11T18:00:24;1.90;93.00
42905;DHT22;28550;51.228;4.528;2022-12-11T18:02:50;2.00;93.70
42905;DHT22;28550;51.228;4.528;2022-12-11T18:05:16;2.00;93.50
42905;DHT22;28550;51.228;4.528;2022-12-11T18:07:41;2.00;93.10
42905;DHT22;28550;51.228;4.528;2022-12-11T18:10:13;2.00;93.10
42905;DHT22;28550;51.228;4.528;2022-12-11T18:12:39;2.00;92.90
42905;DHT22;28550;51.228;4.528;2022-12-11T18:15:12;2.00;93.00
42905;DHT22;28550;51.228;4.528;2022-12-11T18:17:38;1.90;93.20
42905;DHT22;28550;51.228;4.528;2022-12-11T18:20:03;1.80;93.10
42905;DHT22;28550;51.228;4.528;2022-12-11T18:22:30;1.80;92.70
42905;DHT22;28550;51.228;4.528;2022-12-11T18:24:56;1.80;93.20
42905;DHT22;28550;51.228;4.528;2022-12-11T18:27:25;1.70;94.00
42905;DHT22;28550;51.228;4.528;2022-12-11T18:29:52;1.60;94.10
42905;DHT22;28550;51.228;4.528;2022-12-11T18:32:18;1.70;95.00
42905;DHT22;28550;51.228;4.528;2022-12-11T18:34:43;1.60;95.30
42905;DHT22;28550;51.228;4.528;2022-12-11T18:37:13;1.60;95.90
42905;DHT22;28550;51.228;4.528;2022-12-11T18:39:39;1.60;96.10
42905;DHT22;28550;51.228;4.528;2022-12-11T18:42:04;1.70;96.40
42905;DHT22;28550;51.228;4.528;2022-12-11T18:44:30;1.60;95.80
42905;DHT22;28550;51.228;4.528;2022-12-11T18:46:56;1.60;96.40
42905;DHT22;28550;51.228;4.528;2022-12-11T18:49:21;1.60;95.80
42905;DHT22;28550;51.228;4.528;2022-12-11T18:51:47;1.50;95.90
42905;DHT22;28550;51.228;4.528;2022-12-11T18:54:14;1.50;96.30
42905;DHT22;28550;51.228;4.528;2022-12-11T18:56:40;1.40;96.50
42905;DHT22;28550;51.228;4.528;2022-12-11T18:59:06;1.50;96.90
42905;DHT22;28550;51.228;4.528;2022-12-11T19:01:32;1.50;96.70
42905;DHT22;28550;51.228;4.528;2022-12-11T19:04:00;1.60;96.80
42905;DHT22;28550;51.228;4.528;2022-12-11T19:06:28;1.70;96.30
42905;DHT22;28550;51.228;4.528;2022-12-11T19:08:56;1.90;94.40
42905;DHT22;28550;51.228;4.528;2022-12-11T19:11:24;1.90;93.70
42905;DHT22;28550;51.228;4.528;2022-12-11T19:13:51;1.80;93.10
42905;DHT22;28550;51.228;4.528;2022-12-11T19:16:22;1.70;93.40
42905;DHT22;28550;51.228;4.528;2022-12-11T19:18:48;1.70;93.50
42905;DHT22;28550;51.228;4.528;2022-12-11T19:21:16;1.60;93.30
42905;DHT22;28550;51.228;4.528;2022-12-11T19:23:43;1.50;94.70
42905;DHT22;28550;51.228;4.528;2022-12-11T19:26:17;1.50;95.30
42905;DHT22;28550;51.228;4.528;2022-12-11T19:28:43;1.50;96.10
42905;DHT22;28550;51.228;4.528;2022-12-11T19:31:11;1.60;96.50
42905;DHT22;28550;51.228;4.528;2022-12-11T19:33:38;1.60;96.70
42905;DHT22;28550;51.228;4.528;2022-12-11T19:36:12;1.60;96.90
42905;DHT22;28550;51.228;4.528;2022-12-11T19:38:40;1.70;96.70
42905;DHT22;28550;51.228;4.528;2022-12-11T19:41:16;1.70;96.30
42905;DHT22;28550;51.228;4.528;2022-12-11T19:43:42;1.70;95.70
42905;DHT22;28550;51.228;4.528;2022-12-11T19:46:09;1.70;95.30
42905;DHT22;28550;51.228;4.528;2022-12-11T19:48:36;1.70;95.30
42905;DHT22;28550;51.228;4.528;2022-12-11T19:51:04;1.90;94.50
42905;DHT22;28550;51.228;4.528;2022-12-11T19:53:30;1.90;93.40
42905;DHT22;28550;51.228;4.528;2022-12-11T19:55:56;1.90;93.00
42905;DHT22;28550;51.228;4.528;2022-12-11T19:58:21;1.80;93.50
42905;DHT22;28550;51.228;4.528;2022-12-11T20:00:47;1.80;93.90
42905;DHT22;28550;51.228;4.528;2022-12-11T20:03:13;1.70;93.80
42905;DHT22;28550;51.228;4.528;2022-12-11T20:05:40;1.70;94.30
42905;DHT22;28550;51.228;4.528;2022-12-11T20:08:06;1.80;94.00
42905;DHT22;28550;51.228;4.528;2022-12-11T20:10:34;1.90;93.40
42905;DHT22;28550;51.228;4.528;2022-12-11T20:13:00;1.90;92.90
42905;DHT22;28550;51.228;4.528;2022-12-11T20:15:26;1.80;92.50
42905;DHT22;28550;51.228;4.528;2022-12-11T20:17:58;1.80;93.20
42905;DHT22;28550;51.228;4.528;2022-12-11T20:20:27;1.80;93.10
42905;DHT22;28550;51.228;4.528;2022-12-11T20:22:55;2.00;91.70
42905;DHT22;28550;51.228;4.528;2022-12-11T20:25:22;2.00;91.30
42905;DHT22;28550;51.228;4.528;2022-12-11T20:27:48;1.80;91.50
42905;DHT22;28550;51.228;4.528;2022-12-11T20:30:14;1.70;93.40
42905;DHT22;28550;51.228;4.528;2022-12-11T20:32:40;1.60;94.40
42905;DHT22;28550;51.228;4.528;2022-12-11T20:35:07;1.60;94.40
42905;DHT22;28550;51.228;4.528;2022-12-11T20:37:33;1.50;94.30
42905;DHT22;28550;51.228;4.528;2022-12-11T20:40:00;1.70;94.30
42905;DHT22;28550;51.228;4.528;2022-12-11T20:42:26;1.60;93.40
42905;DHT22;28550;51.228;4.528;2022-12-11T20:44:52;1.60;93.20
42905;DHT22;28550;51.228;4.528;2022-12-11T20:47:22;1.60;92.60
42905;DHT22;28550;51.228;4.528;2022-12-11T20:49:49;1.70;90.90
42905;DHT22;28550;51.228;4.528;2022-12-11T20:52:16;1.60;92.20
42905;DHT22;28550;51.228;4.528;2022-12-11T20:54:42;1.50;93.30
42905;DHT22;28550;51.228;4.528;2022-12-11T20:57:09;1.50;93.80
42905;DHT22;28550;51.228;4.528;2022-12-11T20:59:36;1.40;94.50
42905;DHT22;28550;51.228;4.528;2022-12-11T21:02:02;1.30;95.30
42905;DHT22;28550;51.228;4.528;2022-12-11T21:04:29;1.30;96.10
42905;DHT22;28550;51.228;4.528;2022-12-11T21:06:56;1.30;96.10
42905;DHT22;28550;51.228;4.528;2022-12-11T21:09:24;1.20;96.50
42905;DHT22;28550;51.228;4.528;2022-12-11T21:11:56;1.20;96.50
42905;DHT22;28550;51.228;4.528;2022-12-11T21:14:23;1.30;96.10
42905;DHT22;28550;51.228;4.528;2022-12-11T21:17:07;1.40;95.10
42905;DHT22;28550;51.228;4.528;2022-12-11T21:19:53;1.40;94.70
42905;DHT22;28550;51.228;4.528;2022-12-11T21:22:19;1.30;93.90
42905;DHT22;28550;51.228;4.528;2022-12-11T21:24:44;1.30;94.10
42905;DHT22;28550;51.228;4.528;2022-12-11T21:27:10;1.10;95.00
42905;DHT22;28550;51.228;4.528;2022-12-11T21:29:35;1.20;95.20
42905;DHT22;28550;51.228;4.528;2022-12-11T21:32:08;1.30;95.60
42905;DHT22;28550;51.228;4.528;2022-12-11T21:34:38;1.20;95.80
42905;DHT22;28550;51.228;4.528;2022-12-11T21:37:04;1.30;95.40
42905;DHT22;28550;51.228;4.528;2022-12-11T21:39:30;1.20;95.30
42905;DHT22;28550;51.228;4.528;2022-12-11T21:41:55;1.20;94.70
42905;DHT22;28550;51.228;4.528;2022-12-11T21:44:23;1.20;94.10
42905;DHT22;28550;51.228;4.528;2022-12-11T21:46:48;1.10;94.90
42905;DHT22;28550;51.228;4.528;2022-12-11T21:49:14;1.10;95.30
42905;DHT22;28550;51.228;4.528;2022-12-11T21:51:40;1.10;95.30
42905;DHT22;28550;51.228;4.528;2022-12-11T21:54:08;1.10;95.30
42905;DHT22;28550;51.228;4.528;2022-12-11T21:56:35;1.00;96.20
42905;DHT22;28550;51.228;4.528;2022-12-11T21:59:00;1.00;96.10